EKSB/SGD METAR and TAF weather

Enter ICAO airport designator
Station Type Date Time Source
EKSB METAR 2020/07/10 19:50 UTC NOAA

EKSB 101950Z AUTO 27008KT 230V310 9999NDV BKN061/// 12/08 Q1013


Station Type Date Time Source
EKSB Decoded METAR 2020/07/10 19:50 UTC NOAA

Soenderborg Lufthavn, Denmark (EKSB) 54-58N 009-47E 14M
Jul 10, 2020 - 03:50 PM EDT / 2020.07.10 1950 UTC
Wind: from the W (270 degrees) at 9 MPH (8 KT) (direction variable):0
Sky conditions: mostly cloudy
Temperature: 53 F (12 C)
Dew Point: 46 F (8 C)
Relative Humidity: 76%
Pressure (altimeter): 29.91 in. Hg (1013 hPa)
ob: EKSB 101950Z AUTO 27008KT 230V310 9999NDV BKN061/// 12/08 Q1013
cycle: 20

Station Type Date Time Source
EKSB TAF 2016/01/27 09:03 UTC NOAA

TAF TAF EKSB 270856Z 2709/2721 23022KT 5000 -RA BR BKN008
TEMPO 2709/2721 24025G40KT 2000 RADZ BKN004

Example: see airport list